In Rescue
 
Wind Gusting 17 knots
13
November 29, 2022 10:37 AM EST
Weather Information
Wind Direction
  150 °
Wind Speed
  13 kt (15 mph)
Wind Gust
  17 kt (20 mph)
Altimeter
30.00 in
Visibility
10 SM
Temperature
10° C
50° F
Dewpoint
06° C
43° F
Humidity
76%
1hr Rain Fall
00.00 in.
24hr Rain Fall
00.00 in.
Sky Condition
Clear
VFR

METAR KIMS 291537Z AUTO 15013G17KT 10SM CLR 10/06 A3000 RMK AO2

FAA Disclaimer: The data displayed is for advisory purposes only and is not to be used for flight planning or operations.